Time;durP1;ratioP1;P1;durP2;ratioP2;P2;SDS_P1;SDS_P2;PMS_P1;PMS_P2;Temp;Humidity;BMP_temperature;BMP_pressure;BME280_temperature;BME280_humidity;BME280_pressure;Samples;Min_cycle;Max_cycle;Signal;HPM_P1;HPM_P2
2023/06/04 00:02:11;;;;;;;2.10;2.00;;;;;;;;;;5024971;28;20396;-48
2023/06/04 00:04:37;;;;;;;2.90;2.00;;;;;;;;;;5026962;28;20420;-48
2023/06/04 00:07:03;;;;;;;3.63;3.03;;;;;;;;;;5023583;28;20979;-48
2023/06/04 00:09:29;;;;;;;2.90;2.70;;;;;;;;;;5018922;28;20835;-48
2023/06/04 00:11:55;;;;;;;7.50;2.50;;;;;;;;;;5025976;28;20410;-47
2023/06/04 00:14:21;;;;;;;3.50;2.80;;;;;;;;;;5016374;28;20462;-48
2023/06/04 00:16:47;;;;;;;2.77;2.50;;;;;;;;;;5016503;28;20441;-48
2023/06/04 00:19:13;;;;;;;4.53;2.60;;;;;;;;;;5022474;28;20437;-48
2023/06/04 00:21:39;;;;;;;2.30;2.10;;;;;;;;;;5025297;28;20406;-48
2023/06/04 00:24:05;;;;;;;4.50;2.90;;;;;;;;;;5021864;28;20940;-49
2023/06/04 00:26:31;;;;;;;5.43;2.90;;;;;;;;;;5023668;28;20925;-48
2023/06/04 00:28:58;;;;;;;2.90;2.70;;;;;;;;;;5025674;28;20441;-48
2023/06/04 00:31:24;;;;;;;3.37;2.53;;;;;;;;;;5022274;28;20425;-48
2023/06/04 00:33:50;;;;;;;2.70;2.50;;;;;;;;;;5023871;28;20814;-48
2023/06/04 00:36:16;;;;;;;3.53;2.40;;;;;;;;;;5022130;28;20415;-48
2023/06/04 00:38:42;;;;;;;4.13;2.90;;;;;;;;;;5023419;28;20410;-48
2023/06/04 00:41:08;;;;;;;3.63;2.83;;;;;;;;;;5022099;28;20822;-47
2023/06/04 00:43:35;;;;;;;2.83;2.57;;;;;;;;;;5027627;28;20449;-49
2023/06/04 00:46:03;;;;;;;3.70;2.93;;;;;;;;;;5022228;28;20482;-48
2023/06/04 00:48:30;;;;;;;2.47;2.20;;;;;;;;;;5019933;28;20509;-48
2023/06/04 00:50:56;;;;;;;2.63;2.20;;;;;;;;;;5025104;28;20460;-48
2023/06/04 00:53:23;;;;;;;2.77;2.57;;;;;;;;;;5027696;28;20458;-48
2023/06/04 00:55:50;;;;;;;5.90;3.00;;;;;;;;;;5019974;28;20850;-48
2023/06/04 00:58:16;;;;;;;2.93;2.63;;;;;;;;;;5017211;28;20831;-48
2023/06/04 01:00:42;;;;;;;2.67;2.47;;;;;;;;;;5024604;28;20428;-48
2023/06/04 01:03:11;;;;;;;2.67;2.40;;;;;;;;;;5022473;28;20992;-48
2023/06/04 01:05:39;;;;;;;3.80;3.27;;;;;;;;;;5023714;28;20411;-48
2023/06/04 01:08:09;;;;;;;3.03;2.50;;;;;;;;;;5021911;28;20988;-48
2023/06/04 01:10:35;;;;;;;2.73;2.53;;;;;;;;;;5023016;28;20432;-48
2023/06/04 01:13:01;;;;;;;4.10;2.47;;;;;;;;;;5019127;28;20420;-48
2023/06/04 01:15:27;;;;;;;2.77;2.50;;;;;;;;;;5028264;28;20487;-48
2023/06/04 01:18:02;;;;;;;3.40;2.90;;;;;;;;;;5023261;28;20786;-48
2023/06/04 01:20:40;;;;;;;3.40;2.67;;;;;;;;;;5020063;28;20444;-48
2023/06/04 01:23:14;;;;;;;3.17;2.87;;;;;;;;;;5019793;28;20422;-48
2023/06/04 01:25:43;;;;;;;3.70;2.70;;;;;;;;;;5021602;28;20421;-48
2023/06/04 01:28:11;;;;;;;3.03;2.30;;;;;;;;;;5021243;28;20401;-48
2023/06/04 01:30:45;;;;;;;4.97;3.27;;;;;;;;;;5026814;28;20419;-48
2023/06/04 01:33:12;;;;;;;3.20;2.90;;;;;;;;;;5020912;28;20398;-48
2023/06/04 01:35:39;;;;;;;4.47;2.90;;;;;;;;;;5024364;28;20790;-48
2023/06/04 01:38:05;;;;;;;2.73;2.30;;;;;;;;;;5021180;28;20503;-48
2023/06/04 01:40:31;;;;;;;2.93;2.73;;;;;;;;;;5016341;28;20443;-48
2023/06/04 01:42:58;;;;;;;2.97;2.77;;;;;;;;;;5024050;28;20411;-48
2023/06/04 01:45:24;;;;;;;5.10;2.67;;;;;;;;;;5020210;28;20800;-48
2023/06/04 01:47:50;;;;;;;2.77;2.57;;;;;;;;;;5014132;28;20431;-48
2023/06/04 01:50:16;;;;;;;3.07;2.57;;;;;;;;;;5020498;28;20451;-48
2023/06/04 01:52:42;;;;;;;4.13;2.93;;;;;;;;;;5022694;28;20413;-48
2023/06/04 01:55:11;;;;;;;2.90;2.60;;;;;;;;;;5019789;28;20465;-48
2023/06/04 01:57:38;;;;;;;7.93;2.90;;;;;;;;;;5020444;28;20451;-48
2023/06/04 02:00:07;;;;;;;4.10;3.00;;;;;;;;;;5023544;28;20939;-48
2023/06/04 02:02:33;;;;;;;4.67;2.50;;;;;;;;;;5018797;28;20417;-48
2023/06/04 02:04:59;;;;;;;3.00;2.70;;;;;;;;;;5020439;28;20521;-48
2023/06/04 02:07:25;;;;;;;2.60;2.40;;;;;;;;;;5021087;28;20441;-48
2023/06/04 02:09:51;;;;;;;2.93;2.63;;;;;;;;;;5020074;28;20967;-48
2023/06/04 02:12:18;;;;;;;4.23;2.63;;;;;;;;;;5012137;28;20506;-48
2023/06/04 02:14:47;;;;;;;3.00;2.80;;;;;;;;;;5020157;28;20457;-48
2023/06/04 02:17:13;;;;;;;9.00;3.07;;;;;;;;;;5017313;28;20473;-48
2023/06/04 02:19:44;;;;;;;3.50;2.87;;;;;;;;;;5024429;28;20507;-48
2023/06/04 02:22:13;;;;;;;3.10;2.80;;;;;;;;;;5023685;28;20420;-48
2023/06/04 02:24:42;;;;;;;3.47;3.17;;;;;;;;;;5020445;28;20412;-48
2023/06/04 02:27:08;;;;;;;3.30;3.00;;;;;;;;;;5017691;28;20492;-48
2023/06/04 02:29:34;;;;;;;2.67;2.47;;;;;;;;;;5017854;28;20534;-48
2023/06/04 02:32:00;;;;;;;2.93;2.73;;;;;;;;;;5018251;28;20507;-48
2023/06/04 02:34:26;;;;;;;2.97;2.77;;;;;;;;;;5019460;28;20459;-48
2023/06/04 02:36:52;;;;;;;3.43;3.13;;;;;;;;;;5019881;28;20495;-48
2023/06/04 02:39:18;;;;;;;6.13;3.50;;;;;;;;;;5020052;28;20438;-48
2023/06/04 02:41:45;;;;;;;3.20;2.90;;;;;;;;;;5025698;28;20474;-48
2023/06/04 02:44:11;;;;;;;3.77;2.87;;;;;;;;;;5023260;28;20783;-48
2023/06/04 02:46:37;;;;;;;4.37;3.10;;;;;;;;;;5017813;28;20419;-48
2023/06/04 02:49:03;;;;;;;3.13;2.93;;;;;;;;;;5018212;28;20459;-48
2023/06/04 02:51:29;;;;;;;3.70;3.20;;;;;;;;;;5021732;28;20615;-48
2023/06/04 02:53:56;;;;;;;3.33;2.90;;;;;;;;;;5023116;28;20442;-48
2023/06/04 02:56:22;;;;;;;2.97;2.67;;;;;;;;;;5021085;28;20840;-48
2023/06/04 02:58:52;;;;;;;3.63;3.17;;;;;;;;;;5022589;28;20435;-48
2023/06/04 03:01:22;;;;;;;3.50;2.80;;;;;;;;;;5022642;28;20426;-48
2023/06/04 03:03:49;;;;;;;3.53;2.93;;;;;;;;;;5009925;28;20533;-48
2023/06/04 03:06:16;;;;;;;3.10;2.80;;;;;;;;;;5027673;28;20412;-48
2023/06/04 03:08:42;;;;;;;3.73;2.60;;;;;;;;;;5021019;28;20403;-47
2023/06/04 03:11:08;;;;;;;3.33;3.03;;;;;;;;;;5020904;28;20418;-48
2023/06/04 03:13:34;;;;;;;3.10;2.80;;;;;;;;;;5024723;28;20462;-47
2023/06/04 03:16:00;;;;;;;3.90;3.33;;;;;;;;;;5024227;28;20763;-48
2023/06/04 03:18:27;;;;;;;3.00;2.47;;;;;;;;;;5024982;28;20417;-48
2023/06/04 03:20:53;;;;;;;5.97;3.00;;;;;;;;;;5023518;28;20501;-47
2023/06/04 03:23:20;;;;;;;3.73;2.67;;;;;;;;;;5029769;28;20502;-48
2023/06/04 03:25:46;;;;;;;3.20;2.93;;;;;;;;;;5023847;28;20429;-48
2023/06/04 03:28:12;;;;;;;4.10;3.10;;;;;;;;;;5022492;28;20930;-48
2023/06/04 03:30:38;;;;;;;3.50;2.97;;;;;;;;;;5026195;28;20483;-48
2023/06/04 03:33:04;;;;;;;3.60;2.93;;;;;;;;;;5023153;28;20399;-47
2023/06/04 03:35:30;;;;;;;3.57;3.00;;;;;;;;;;5023235;28;20422;-48
2023/06/04 03:37:56;;;;;;;3.53;3.23;;;;;;;;;;5023221;28;20412;-47
2023/06/04 03:40:22;;;;;;;3.20;2.70;;;;;;;;;;5027906;28;20509;-48
2023/06/04 03:42:48;;;;;;;2.90;2.70;;;;;;;;;;5022127;28;20406;-47
2023/06/04 03:45:14;;;;;;;3.30;3.00;;;;;;;;;;5020536;28;21022;-48
2023/06/04 03:47:41;;;;;;;6.03;3.17;;;;;;;;;;5023319;28;20922;-48
2023/06/04 03:50:07;;;;;;;3.23;3.03;;;;;;;;;;5022835;28;20544;-48
2023/06/04 03:52:33;;;;;;;3.17;2.87;;;;;;;;;;5025066;28;20911;-48
2023/06/04 03:55:00;;;;;;;3.10;2.70;;;;;;;;;;5025406;28;20491;-48
2023/06/04 03:57:26;;;;;;;3.00;2.77;;;;;;;;;;5026343;28;20938;-47
2023/06/04 03:59:53;;;;;;;3.00;2.70;;;;;;;;;;5016370;28;20450;-48
2023/06/04 04:02:19;;;;;;;3.33;3.00;;;;;;;;;;5022111;28;20793;-48
2023/06/04 04:04:45;;;;;;;3.37;3.07;;;;;;;;;;5025861;28;20402;-48
2023/06/04 04:07:11;;;;;;;3.50;3.30;;;;;;;;;;5024128;28;20462;-48
2023/06/04 04:09:37;;;;;;;3.03;2.67;;;;;;;;;;5025160;28;20572;-47
2023/06/04 04:12:04;;;;;;;4.20;3.80;;;;;;;;;;5027996;28;20902;-47
2023/06/04 04:14:30;;;;;;;4.17;3.43;;;;;;;;;;5017888;28;20521;-48
2023/06/04 04:16:56;;;;;;;2.87;2.67;;;;;;;;;;5025705;28;20415;-48
2023/06/04 04:19:21;;;;;;;3.43;3.13;;;;;;;;;;5022977;28;20428;-48
2023/06/04 04:21:48;;;;;;;3.30;3.00;;;;;;;;;;5025487;28;20632;-47
2023/06/04 04:24:27;;;;;;;6.13;3.23;;;;;;;;;;5021181;28;20431;-48
2023/06/04 04:26:53;;;;;;;5.30;3.27;;;;;;;;;;5021866;28;20454;-48
2023/06/04 04:29:24;;;;;;;4.80;3.43;;;;;;;;;;5015753;28;20447;-48
2023/06/04 04:31:50;;;;;;;4.10;3.00;;;;;;;;;;5027649;28;20424;-48
2023/06/04 04:34:17;;;;;;;4.97;3.80;;;;;;;;;;5027301;28;20799;-48
2023/06/04 04:36:44;;;;;;;5.00;3.73;;;;;;;;;;5021016;28;20776;-48
2023/06/04 04:39:10;;;;;;;5.10;3.90;;;;;;;;;;5020495;28;20472;-47
2023/06/04 04:41:38;;;;;;;6.27;4.10;;;;;;;;;;5022714;28;20439;-47
2023/06/04 04:44:05;;;;;;;6.17;3.60;;;;;;;;;;5021869;28;20408;-47
2023/06/04 04:46:31;;;;;;;6.17;4.53;;;;;;;;;;5023715;28;20416;-47
2023/06/04 04:51:32;;;;;;;6.03;3.40;;;;;;;;;;4943225;22;20574;-44
2023/06/04 04:54:00;;;;;;;6.23;3.30;;;;;;;;;;5052500;28;20568;-44
2023/06/04 04:56:26;;;;;;;5.53;4.03;;;;;;;;;;5045575;28;20494;-44
2023/06/04 04:58:52;;;;;;;3.90;3.60;;;;;;;;;;5051569;28;20483;-45
2023/06/04 05:01:18;;;;;;;4.03;3.43;;;;;;;;;;5052883;28;20441;-44
2023/06/04 05:03:44;;;;;;;3.40;3.10;;;;;;;;;;5052233;28;20988;-43
2023/06/04 05:06:10;;;;;;;3.63;3.33;;;;;;;;;;5053057;28;20418;-44
2023/06/04 05:08:36;;;;;;;4.30;3.90;;;;;;;;;;5046999;28;20420;-44
2023/06/04 05:11:03;;;;;;;4.47;3.73;;;;;;;;;;5053036;28;20441;-43
2023/06/04 05:13:28;;;;;;;5.83;4.00;;;;;;;;;;5052566;28;20834;-44
2023/06/04 05:15:54;;;;;;;5.27;4.27;;;;;;;;;;5048943;28;20434;-43
2023/06/04 05:18:21;;;;;;;4.10;3.70;;;;;;;;;;5051052;28;20414;-44
2023/06/04 05:20:47;;;;;;;10.80;4.07;;;;;;;;;;5050949;28;20423;-43
2023/06/04 05:23:13;;;;;;;9.83;4.03;;;;;;;;;;5048572;28;20762;-44
2023/06/04 05:25:41;;;;;;;4.23;3.83;;;;;;;;;;5045062;28;20413;-43
2023/06/04 05:28:07;;;;;;;5.07;3.93;;;;;;;;;;5052419;28;20498;-44
2023/06/04 05:30:33;;;;;;;4.43;4.03;;;;;;;;;;5048536;28;20442;-44
2023/06/04 05:32:59;;;;;;;4.53;4.00;;;;;;;;;;5048142;28;20409;-43
2023/06/04 05:35:26;;;;;;;6.10;4.57;;;;;;;;;;5046223;28;20470;-45
2023/06/04 05:37:54;;;;;;;8.00;4.70;;;;;;;;;;5052446;28;20407;-44
2023/06/04 05:40:21;;;;;;;6.27;4.37;;;;;;;;;;5043164;28;20470;-44
2023/06/04 05:42:48;;;;;;;4.97;4.53;;;;;;;;;;5052324;28;20899;-43
2023/06/04 05:45:14;;;;;;;5.03;4.53;;;;;;;;;;5051370;28;20823;-44
2023/06/04 05:47:40;;;;;;;4.63;4.20;;;;;;;;;;5047989;28;20413;-44
2023/06/04 05:50:06;;;;;;;6.90;4.57;;;;;;;;;;5052136;28;20448;-43
2023/06/04 05:52:33;;;;;;;5.20;4.70;;;;;;;;;;5044638;28;20431;-44
2023/06/04 05:54:59;;;;;;;4.63;4.23;;;;;;;;;;5051074;28;20471;-43
2023/06/04 05:57:25;;;;;;;4.63;3.67;;;;;;;;;;5052074;28;20494;-44
2023/06/04 05:59:51;;;;;;;3.73;3.40;;;;;;;;;;5051670;28;20417;-43
2023/06/04 06:02:17;;;;;;;4.73;4.27;;;;;;;;;;5048516;28;20405;-44
2023/06/04 06:04:43;;;;;;;4.03;3.73;;;;;;;;;;5049474;28;20451;-44
2023/06/04 06:07:09;;;;;;;4.00;3.67;;;;;;;;;;5050241;28;20977;-44
2023/06/04 06:09:36;;;;;;;5.70;3.40;;;;;;;;;;5051037;28;21012;-44
2023/06/04 06:12:02;;;;;;;3.83;3.43;;;;;;;;;;5049356;28;20499;-44
2023/06/04 06:14:27;;;;;;;5.00;3.97;;;;;;;;;;5052018;28;20507;-45
2023/06/04 06:16:53;;;;;;;5.87;3.40;;;;;;;;;;5049194;28;20903;-43
2023/06/04 06:19:19;;;;;;;3.40;3.10;;;;;;;;;;5048558;28;20819;-43
2023/06/04 06:21:45;;;;;;;4.60;2.97;;;;;;;;;;5051692;28;20385;-43
2023/06/04 06:24:11;;;;;;;9.87;2.90;;;;;;;;;;5051712;28;20475;-44
2023/06/04 06:26:37;;;;;;;3.90;3.27;;;;;;;;;;5049180;28;20421;-44
2023/06/04 06:29:03;;;;;;;3.10;2.90;;;;;;;;;;5051682;28;20417;-44
2023/06/04 06:31:29;;;;;;;3.40;3.07;;;;;;;;;;5050335;28;20460;-43
2023/06/04 06:33:55;;;;;;;3.30;3.00;;;;;;;;;;5046492;28;20498;-44
2023/06/04 06:36:21;;;;;;;3.37;3.07;;;;;;;;;;5047691;28;20410;-43
2023/06/04 06:38:47;;;;;;;3.50;2.67;;;;;;;;;;5051672;28;20406;-44
2023/06/04 06:41:13;;;;;;;3.67;3.03;;;;;;;;;;5051532;28;20446;-44
2023/06/04 06:43:39;;;;;;;3.07;2.77;;;;;;;;;;5047261;28;20417;-44
2023/06/04 06:46:05;;;;;;;2.93;2.67;;;;;;;;;;5045740;28;20422;-43
2023/06/04 06:48:31;;;;;;;3.10;2.90;;;;;;;;;;5050885;28;20423;-43
2023/06/04 06:50:57;;;;;;;3.50;2.87;;;;;;;;;;5051325;28;20458;-43
2023/06/04 06:53:23;;;;;;;6.13;3.87;;;;;;;;;;5048324;28;20473;-44
2023/06/04 06:55:49;;;;;;;3.90;3.33;;;;;;;;;;5051162;28;20437;-44
2023/06/04 06:58:15;;;;;;;2.67;2.47;;;;;;;;;;5046911;28;20517;-43
2023/06/04 07:00:41;;;;;;;5.63;2.60;;;;;;;;;;5044116;28;20785;-44
2023/06/04 07:03:08;;;;;;;3.57;3.23;;;;;;;;;;5050131;28;20439;-45
2023/06/04 07:05:34;;;;;;;4.03;2.90;;;;;;;;;;5050770;28;20469;-44
2023/06/04 07:08:01;;;;;;;3.53;3.23;;;;;;;;;;5049191;28;20413;-43
2023/06/04 07:10:27;;;;;;;4.73;3.33;;;;;;;;;;5051118;28;20420;-44
2023/06/04 07:12:53;;;;;;;3.33;3.03;;;;;;;;;;5050959;28;20404;-44
2023/06/04 07:15:19;;;;;;;6.20;3.17;;;;;;;;;;5042810;28;20452;-44
2023/06/04 07:17:45;;;;;;;5.30;2.50;;;;;;;;;;5051196;28;20395;-43
2023/06/04 07:20:11;;;;;;;3.63;2.83;;;;;;;;;;5051044;28;20408;-43
2023/06/04 07:22:38;;;;;;;2.40;2.20;;;;;;;;;;5048831;28;20407;-44
2023/06/04 07:25:05;;;;;;;3.30;2.70;;;;;;;;;;5051084;28;20449;-45
2023/06/04 07:27:31;;;;;;;4.07;2.67;;;;;;;;;;5045610;28;20496;-44
2023/06/04 07:29:57;;;;;;;2.50;2.30;;;;;;;;;;5050917;28;20902;-44
2023/06/04 07:32:23;;;;;;;2.57;2.40;;;;;;;;;;5047297;28;20972;-45
2023/06/04 07:34:49;;;;;;;5.47;2.33;;;;;;;;;;5050718;28;20485;-44
2023/06/04 07:37:15;;;;;;;4.20;2.17;;;;;;;;;;5051053;28;20416;-43
2023/06/04 07:39:41;;;;;;;2.70;2.50;;;;;;;;;;5047086;28;20421;-43
2023/06/04 07:42:07;;;;;;;2.20;2.00;;;;;;;;;;5050990;28;20437;-44
2023/06/04 07:44:33;;;;;;;3.33;2.40;;;;;;;;;;5050577;28;20417;-44
2023/06/04 07:46:59;;;;;;;3.97;2.10;;;;;;;;;;5051099;28;20479;-43
2023/06/04 07:49:25;;;;;;;3.13;2.20;;;;;;;;;;5048681;28;20465;-43
2023/06/04 07:51:51;;;;;;;2.13;1.90;;;;;;;;;;5051276;28;20374;-44
2023/06/04 07:54:17;;;;;;;2.33;2.13;;;;;;;;;;5042740;28;20625;-44
2023/06/04 07:56:43;;;;;;;2.17;1.87;;;;;;;;;;5047877;28;20814;-44
2023/06/04 07:59:10;;;;;;;3.40;2.47;;;;;;;;;;5044408;28;20494;-44
2023/06/04 08:01:36;;;;;;;2.30;2.10;;;;;;;;;;5053228;28;20425;-44
2023/06/04 08:04:02;;;;;;;3.17;2.07;;;;;;;;;;5053618;28;20474;-44
2023/06/04 08:06:28;;;;;;;4.70;2.90;;;;;;;;;;5050410;28;20524;-44
2023/06/04 08:08:54;;;;;;;2.77;2.57;;;;;;;;;;5054263;28;20405;-44
2023/06/04 08:11:22;;;;;;;2.70;2.50;;;;;;;;;;5045697;28;20429;-44
2023/06/04 08:13:48;;;;;;;2.50;2.30;;;;;;;;;;5046811;28;20459;-44
2023/06/04 08:16:14;;;;;;;2.33;2.23;;;;;;;;;;5053638;28;20798;-44
2023/06/04 08:18:40;;;;;;;2.90;2.60;;;;;;;;;;5053980;28;20406;-45
2023/06/04 08:21:10;;;;;;;3.43;3.13;;;;;;;;;;5050405;28;20425;-44
2023/06/04 08:23:36;;;;;;;2.60;2.33;;;;;;;;;;5053667;28;20420;-44
2023/06/04 08:26:02;;;;;;;2.60;2.40;;;;;;;;;;5048849;28;20421;-43
2023/06/04 08:28:28;;;;;;;3.33;3.03;;;;;;;;;;5051403;28;20409;-44
2023/06/04 08:30:54;;;;;;;6.83;3.00;;;;;;;;;;5054209;28;20522;-43
2023/06/04 08:33:20;;;;;;;4.47;3.33;;;;;;;;;;5052543;28;20919;-43
2023/06/04 08:35:46;;;;;;;2.90;2.50;;;;;;;;;;5053089;28;20476;-44
2023/06/04 08:38:12;;;;;;;2.87;2.67;;;;;;;;;;5048570;28;20481;-44
2023/06/04 08:40:38;;;;;;;3.27;2.97;;;;;;;;;;5053482;28;20554;-43
2023/06/04 08:43:05;;;;;;;3.97;2.73;;;;;;;;;;5053480;28;20870;-44
2023/06/04 08:45:33;;;;;;;3.87;3.07;;;;;;;;;;5053589;28;20988;-43
2023/06/04 08:47:59;;;;;;;3.00;2.73;;;;;;;;;;5052463;28;20855;-43
2023/06/04 08:50:25;;;;;;;4.80;3.00;;;;;;;;;;5050854;28;20547;-43
2023/06/04 08:52:55;;;;;;;3.17;2.63;;;;;;;;;;5053355;28;20421;-44
2023/06/04 08:55:21;;;;;;;3.77;2.80;;;;;;;;;;5046350;28;20530;-44
2023/06/04 08:57:50;;;;;;;2.73;2.53;;;;;;;;;;5053009;28;20500;-44
2023/06/04 09:00:18;;;;;;;3.70;3.40;;;;;;;;;;5054975;28;20444;-43
2023/06/04 09:02:44;;;;;;;6.10;3.47;;;;;;;;;;5054159;28;20425;-43
2023/06/04 09:05:10;;;;;;;4.03;3.30;;;;;;;;;;5052452;28;20429;-43
2023/06/04 09:07:39;;;;;;;3.37;3.07;;;;;;;;;;5035784;28;20417;-43
2023/06/04 09:10:08;;;;;;;3.87;3.37;;;;;;;;;;5069976;28;20463;-43
2023/06/04 09:12:36;;;;;;;4.17;3.80;;;;;;;;;;5036639;28;20490;-44
2023/06/04 09:15:02;;;;;;;3.30;3.10;;;;;;;;;;5035317;28;20495;-43
2023/06/04 09:17:29;;;;;;;3.37;3.17;;;;;;;;;;5052959;28;20420;-43
2023/06/04 09:19:55;;;;;;;3.57;3.27;;;;;;;;;;5035097;28;20483;-43
2023/06/04 09:22:31;;;;;;;4.33;3.10;;;;;;;;;;5052718;28;20511;-44
2023/06/04 09:24:57;;;;;;;3.23;3.03;;;;;;;;;;5052792;28;20522;-43
2023/06/04 09:27:25;;;;;;;3.30;3.03;;;;;;;;;;5052999;28;20448;-44
2023/06/04 09:29:57;;;;;;;3.30;3.10;;;;;;;;;;5052928;28;20421;-44
2023/06/04 09:32:27;;;;;;;4.17;3.80;;;;;;;;;;5031491;28;20421;-44
2023/06/04 09:34:53;;;;;;;4.87;3.27;;;;;;;;;;5049001;28;20468;-43
2023/06/04 09:37:22;;;;;;;7.37;3.70;;;;;;;;;;5050912;28;20432;-43
2023/06/04 09:39:54;;;;;;;3.30;3.10;;;;;;;;;;5052015;28;20964;-43
2023/06/04 09:42:22;;;;;;;6.93;3.67;;;;;;;;;;5051795;28;20918;-45
2023/06/04 09:44:48;;;;;;;3.17;2.97;;;;;;;;;;5044868;28;20430;-43
2023/06/04 09:47:14;;;;;;;5.73;3.30;;;;;;;;;;5032632;28;20418;-43
2023/06/04 09:49:47;;;;;;;2.97;2.77;;;;;;;;;;5032331;28;20442;-43
2023/06/04 09:52:13;;;;;;;3.60;3.30;;;;;;;;;;5032629;28;20443;-42
2023/06/04 09:54:41;;;;;;;2.70;2.50;;;;;;;;;;5032086;28;20465;-43
2023/06/04 09:57:17;;;;;;;4.20;2.77;;;;;;;;;;5032190;28;20484;-43
2023/06/04 09:59:46;;;;;;;3.10;2.83;;;;;;;;;;5032057;28;20927;-43
2023/06/04 10:02:13;;;;;;;2.80;2.60;;;;;;;;;;5032208;28;20837;-43
2023/06/04 10:04:42;;;;;;;3.10;2.90;;;;;;;;;;5041807;28;20913;-43
2023/06/04 10:07:12;;;;;;;2.70;2.40;;;;;;;;;;5052144;28;20432;-43
2023/06/04 10:09:45;;;;;;;3.57;2.30;;;;;;;;;;5051924;28;20491;-43
2023/06/04 10:12:15;;;;;;;3.23;2.43;;;;;;;;;;5052020;28;20443;-43
2023/06/04 10:14:46;;;;;;;4.23;3.00;;;;;;;;;;5051719;28;20457;-43
2023/06/04 10:17:13;;;;;;;2.90;2.70;;;;;;;;;;5051951;28;20458;-43
2023/06/04 10:19:40;;;;;;;2.90;2.70;;;;;;;;;;5051649;28;20920;-43
2023/06/04 10:22:09;;;;;;;2.40;2.20;;;;;;;;;;5051143;28;20441;-43
2023/06/04 10:24:35;;;;;;;2.57;2.40;;;;;;;;;;5051472;28;20405;-43
2023/06/04 10:27:01;;;;;;;2.73;2.23;;;;;;;;;;5051632;28;20409;-43
2023/06/04 10:29:30;;;;;;;2.33;2.20;;;;;;;;;;5048108;28;20432;-43
2023/06/04 10:31:56;;;;;;;5.80;2.67;;;;;;;;;;5048195;28;20850;-44
2023/06/04 10:34:22;;;;;;;3.40;2.33;;;;;;;;;;5047311;28;20563;-44
2023/06/04 10:36:48;;;;;;;4.10;2.60;;;;;;;;;;5043440;28;20827;-43
2023/06/04 10:39:14;;;;;;;3.17;2.30;;;;;;;;;;5051475;28;20459;-43
2023/06/04 10:41:41;;;;;;;9.10;2.60;;;;;;;;;;5048401;28;20417;-43
2023/06/04 10:44:08;;;;;;;3.83;2.40;;;;;;;;;;5051290;28;20419;-43
2023/06/04 10:46:40;;;;;;;4.00;3.00;;;;;;;;;;5051357;28;20425;-43
2023/06/04 10:49:06;;;;;;;4.33;2.60;;;;;;;;;;5044119;28;20422;-43
2023/06/04 10:51:33;;;;;;;2.93;2.50;;;;;;;;;;5049145;28;20448;-45
2023/06/04 10:54:00;;;;;;;3.83;2.23;;;;;;;;;;5051036;28;20971;-44
2023/06/04 10:56:32;;;;;;;4.60;2.60;;;;;;;;;;5043103;28;20965;-45
2023/06/04 10:58:58;;;;;;;2.60;2.40;;;;;;;;;;5051374;28;20445;-45
2023/06/04 11:01:25;;;;;;;2.77;2.57;;;;;;;;;;5033620;28;20516;-44
2023/06/04 11:03:51;;;;;;;2.57;2.37;;;;;;;;;;5051311;28;20413;-45
2023/06/04 11:06:17;;;;;;;2.90;2.70;;;;;;;;;;5050435;28;20947;-45
2023/06/04 11:08:44;;;;;;;2.53;2.33;;;;;;;;;;5042495;28;20508;-45
2023/06/04 11:11:13;;;;;;;4.30;2.53;;;;;;;;;;5049586;28;20444;-44
2023/06/04 11:13:40;;;;;;;2.50;2.30;;;;;;;;;;5049283;28;20849;-44
2023/06/04 11:16:18;;;;;;;3.37;2.30;;;;;;;;;;5048830;28;20425;-44
2023/06/04 11:18:54;;;;;;;6.20;2.30;;;;;;;;;;5048250;28;20428;-45
2023/06/04 11:21:20;;;;;;;4.70;2.50;;;;;;;;;;5048258;28;20489;-44
2023/06/04 11:23:46;;;;;;;2.67;2.20;;;;;;;;;;5046260;28;20409;-45
2023/06/04 11:26:12;;;;;;;2.07;1.97;;;;;;;;;;5049187;28;20413;-44
2023/06/04 11:28:40;;;;;;;3.00;1.97;;;;;;;;;;5043130;28;20551;-45
2023/06/04 11:31:06;;;;;;;2.33;2.13;;;;;;;;;;5050666;28;20429;-44
2023/06/04 11:33:45;;;;;;;2.97;2.10;;;;;;;;;;5042234;28;20412;-44
2023/06/04 11:36:11;;;;;;;6.30;2.13;;;;;;;;;;5052489;28;20434;-45
2023/06/04 11:38:37;;;;;;;3.50;2.20;;;;;;;;;;5053806;28;20516;-44
2023/06/04 11:41:05;;;;;;;4.73;2.50;;;;;;;;;;5051066;28;20524;-44
2023/06/04 11:43:32;;;;;;;2.40;2.20;;;;;;;;;;5047556;28;20421;-44
2023/06/04 11:45:58;;;;;;;3.37;2.00;;;;;;;;;;5054442;28;20444;-44
2023/06/04 11:48:24;;;;;;;2.77;2.20;;;;;;;;;;5054436;28;20440;-44
2023/06/04 11:50:50;;;;;;;22.03;3.20;;;;;;;;;;5051477;28;20519;-45
2023/06/04 11:53:16;;;;;;;68.97;5.90;;;;;;;;;;5049923;28;20425;-44
2023/06/04 11:55:42;;;;;;;85.20;7.23;;;;;;;;;;5052977;28;20452;-44
2023/06/04 11:58:08;;;;;;;36.27;4.07;;;;;;;;;;5054261;28;20431;-44
2023/06/04 12:00:35;;;;;;;31.50;4.60;;;;;;;;;;5054065;28;20999;-44
2023/06/04 12:03:01;;;;;;;1.87;1.77;;;;;;;;;;5052794;28;20919;-44
2023/06/04 12:05:30;;;;;;;3.93;2.20;;;;;;;;;;5054012;28;20432;-44
2023/06/04 12:08:06;;;;;;;3.77;1.80;;;;;;;;;;5048992;28;20626;-45
2023/06/04 12:10:38;;;;;;;455.97;37.67;;;;;;;;;;5052734;28;20437;-44
2023/06/04 12:13:04;;;;;;;139.57;11.17;;;;;;;;;;5050395;28;20900;-44
2023/06/04 12:15:30;;;;;;;13.93;3.30;;;;;;;;;;5048411;28;20522;-44
2023/06/04 12:17:56;;;;;;;2.53;2.33;;;;;;;;;;5052129;28;20413;-44
2023/06/04 12:20:32;;;;;;;6.70;1.70;;;;;;;;;;5050560;28;20435;-44
2023/06/04 12:22:58;;;;;;;5.47;2.50;;;;;;;;;;5049255;28;20425;-44
2023/06/04 12:25:28;;;;;;;1.90;1.70;;;;;;;;;;5053732;28;20462;-44
2023/06/04 12:27:54;;;;;;;5.40;1.93;;;;;;;;;;5053616;28;20470;-44
2023/06/04 12:30:20;;;;;;;2.30;2.00;;;;;;;;;;5052708;28;20425;-45
2023/06/04 12:32:46;;;;;;;4.57;2.00;;;;;;;;;;5053514;28;20508;-44
2023/06/04 12:35:12;;;;;;;109.80;6.47;;;;;;;;;;5049986;28;21043;-45
2023/06/04 12:37:39;;;;;;;8.53;2.40;;;;;;;;;;5051823;28;20428;-44
2023/06/04 12:40:06;;;;;;;3.27;1.87;;;;;;;;;;5052786;28;20455;-45
2023/06/04 12:42:32;;;;;;;2.33;1.90;;;;;;;;;;5053319;28;20417;-45
2023/06/04 12:44:58;;;;;;;8.73;2.37;;;;;;;;;;5047328;28;20935;-44
2023/06/04 12:47:24;;;;;;;5.13;2.07;;;;;;;;;;5045497;28;20417;-45
2023/06/04 12:49:50;;;;;;;1.90;1.80;;;;;;;;;;5050328;28;20445;-44
2023/06/04 12:52:17;;;;;;;1.87;1.63;;;;;;;;;;5048499;28;20416;-44
2023/06/04 12:54:43;;;;;;;1.80;1.70;;;;;;;;;;5044292;28;20949;-44
2023/06/04 12:57:09;;;;;;;4.90;2.40;;;;;;;;;;5052360;28;20421;-45
2023/06/04 12:59:35;;;;;;;2.53;2.13;;;;;;;;;;5052044;28;20433;-45
2023/06/04 13:02:01;;;;;;;4.00;2.00;;;;;;;;;;5050302;28;20762;-45
2023/06/04 13:04:27;;;;;;;3.40;2.20;;;;;;;;;;5047600;28;20410;-45
2023/06/04 13:06:58;;;;;;;2.67;2.17;;;;;;;;;;5048400;28;20459;-44
2023/06/04 13:09:24;;;;;;;3.63;2.00;;;;;;;;;;5045591;28;20916;-45
2023/06/04 13:11:51;;;;;;;1.93;1.80;;;;;;;;;;5045139;28;20427;-45
2023/06/04 13:14:17;;;;;;;2.93;2.60;;;;;;;;;;5044293;28;20454;-45
2023/06/04 13:16:45;;;;;;;1.60;1.50;;;;;;;;;;5051705;28;20398;-45
2023/06/04 13:19:11;;;;;;;1.90;1.80;;;;;;;;;;5049625;28;20471;-44
2023/06/04 13:21:37;;;;;;;4.90;1.93;;;;;;;;;;5048212;28;20410;-45
2023/06/04 13:24:03;;;;;;;1.83;1.73;;;;;;;;;;5052459;28;20187;-45
2023/06/04 13:26:29;;;;;;;20.50;2.63;;;;;;;;;;5052445;28;20179;-45
2023/06/04 13:28:55;;;;;;;2.10;1.87;;;;;;;;;;5052794;28;20425;-45
2023/06/04 13:31:21;;;;;;;2.40;2.20;;;;;;;;;;5048436;28;20450;-45
2023/06/04 13:33:47;;;;;;;3.83;1.80;;;;;;;;;;5052370;28;20460;-44
2023/06/04 13:36:13;;;;;;;32.47;4.00;;;;;;;;;;5043631;28;20482;-44
2023/06/04 13:38:41;;;;;;;14.33;3.37;;;;;;;;;;5044998;28;20405;-45
2023/06/04 13:41:07;;;;;;;2.33;1.80;;;;;;;;;;5051696;28;20201;-45
2023/06/04 13:43:33;;;;;;;2.07;1.97;;;;;;;;;;5052082;28;20791;-45
2023/06/04 13:45:59;;;;;;;4.57;2.00;;;;;;;;;;5052224;28;20181;-45
2023/06/04 13:48:24;;;;;;;5.73;1.97;;;;;;;;;;5052320;28;20405;-45
2023/06/04 13:50:50;;;;;;;4.70;2.10;;;;;;;;;;5048588;28;20203;-45
2023/06/04 13:53:17;;;;;;;4.43;2.10;;;;;;;;;;5047797;28;20171;-45
2023/06/04 13:55:43;;;;;;;2.00;1.80;;;;;;;;;;5043913;28;20947;-45
2023/06/04 13:58:09;;;;;;;5.33;1.90;;;;;;;;;;5052195;28;20409;-45
2023/06/04 14:00:35;;;;;;;5.37;1.73;;;;;;;;;;5048062;28;20439;-46
2023/06/04 14:03:01;;;;;;;4.00;1.70;;;;;;;;;;5051946;28;20415;-45
2023/06/04 14:05:30;;;;;;;3.73;2.40;;;;;;;;;;5044657;28;20817;-45
2023/06/04 14:07:56;;;;;;;2.47;2.13;;;;;;;;;;5050955;28;20425;-45
2023/06/04 14:10:22;;;;;;;3.13;1.73;;;;;;;;;;5049808;28;20526;-44
2023/06/04 14:12:48;;;;;;;3.00;1.60;;;;;;;;;;5052169;28;20436;-45
2023/06/04 14:15:14;;;;;;;1.90;1.80;;;;;;;;;;5047980;28;20513;-45
2023/06/04 14:17:40;;;;;;;2.10;1.90;;;;;;;;;;5046195;28;20409;-45
2023/06/04 14:20:07;;;;;;;2.53;1.73;;;;;;;;;;5051360;28;20433;-45
2023/06/04 14:22:36;;;;;;;2.90;1.90;;;;;;;;;;5051754;28;20182;-45
2023/06/04 14:25:04;;;;;;;2.10;1.90;;;;;;;;;;5049440;28;20526;-45
2023/06/04 14:27:30;;;;;;;3.47;1.90;;;;;;;;;;5051246;28;20447;-45
2023/06/04 14:29:56;;;;;;;1.63;1.53;;;;;;;;;;5049077;28;20417;-45
2023/06/04 14:32:22;;;;;;;8.43;1.60;;;;;;;;;;5048713;28;20402;-45
2023/06/04 14:34:48;;;;;;;1.80;1.70;;;;;;;;;;5050644;28;20465;-45
2023/06/04 14:37:14;;;;;;;2.13;2.03;;;;;;;;;;5050864;28;20186;-45
2023/06/04 14:39:40;;;;;;;2.37;1.60;;;;;;;;;;5051330;28;20199;-44
2023/06/04 14:42:06;;;;;;;3.83;1.90;;;;;;;;;;5046988;28;20492;-45
2023/06/04 14:44:32;;;;;;;5.57;1.80;;;;;;;;;;5045626;28;20504;-45